Time;durP1;ratioP1;P1;durP2;ratioP2;P2;SDS_P1;SDS_P2;PMS_P1;PMS_P2;Temp;Humidity;BMP_temperature;BMP_pressure;BME280_temperature;BME280_humidity;BME280_pressure;Samples;Min_cycle;Max_cycle;Signal;HPM_P1;HPM_P2
2022/02/11 22:00:13;;;;;;;24.25;10.95;;;6.70;83.50;;;;;;5068307;28;21309;-73
2022/02/11 22:02:42;;;;;;;19.90;10.20;;;7.20;79.50;;;;;;5050294;28;20037;-74
2022/02/11 22:05:08;;;;;;;20.02;10.48;;;7.20;81.40;;;;;;5049083;28;20033;-75
2022/02/11 22:07:35;;;;;;;23.02;10.48;;;7.50;81.10;;;;;;5051190;28;20083;-74
2022/02/11 22:10:01;;;;;;;19.95;10.45;;;7.20;81.70;;;;;;5050604;28;20021;-74
2022/02/11 22:12:28;;;;;;;15.48;9.52;;;7.50;77.10;;;;;;5046996;28;20029;-75
2022/02/11 22:14:54;;;;;;;18.77;9.60;;;8.10;81.90;;;;;;5048405;28;20696;-75
2022/02/11 22:17:20;;;;;;;17.52;9.60;;;;;;;;;;5048723;28;20048;-75
2022/02/11 22:19:46;;;;;;;18.75;9.73;;;8.80;78.90;;;;;;5045155;28;20037;-76
2022/02/11 22:22:12;;;;;;;19.58;10.30;;;7.60;79.30;;;;;;5047008;28;20037;-75
2022/02/11 22:24:38;;;;;;;19.50;9.75;;;6.10;78.80;;;;;;5047714;28;20619;-75
2022/02/11 22:27:03;;;;;;;19.45;10.07;;;7.30;79.60;;;;;;5044177;28;20049;-76
2022/02/11 22:29:29;;;;;;;16.30;8.80;;;7.20;77.00;;;;;;5035527;28;20026;-76
2022/02/11 22:31:56;;;;;;;17.67;9.23;;;7.60;80.50;;;;;;5046530;28;20040;-75
2022/02/11 22:34:22;;;;;;;20.65;9.30;;;5.30;78.80;;;;;;5046115;28;20108;-76
2022/02/11 22:36:49;;;;;;;15.70;9.10;;;7.60;81.10;;;;;;5046910;28;20742;-76
2022/02/11 22:39:15;;;;;;;17.63;9.32;;;6.80;80.80;;;;;;5045520;28;20574;-75
2022/02/11 22:41:41;;;;;;;17.90;8.63;;;7.00;80.90;;;;;;5055444;28;20029;-76
2022/02/11 22:44:07;;;;;;;15.73;8.45;;;7.40;83.30;;;;;;5046620;28;20502;-75
2022/02/11 22:46:33;;;;;;;16.40;9.27;;;7.70;76.70;;;;;;5047348;28;20049;-76
2022/02/11 22:54:27;;;;;;;17.10;9.30;;;7.70;80.40;;;;;;5046278;28;20094;-75
2022/02/11 22:56:53;;;;;;;17.25;8.88;;;6.80;80.80;;;;;;5045452;28;20025;-75
2022/02/11 22:59:19;;;;;;;18.77;8.90;;;7.60;82.90;;;;;;5050063;28;20431;-75
2022/02/11 23:01:45;;;;;;;18.42;9.52;;;7.10;77.00;;;;;;5044926;28;20017;-76
2022/02/11 23:04:11;;;;;;;17.85;9.00;;;7.00;78.00;;;;;;5057353;28;20033;-75
2022/02/11 23:06:38;;;;;;;18.25;10.55;;;7.00;78.20;;;;;;5044326;28;20119;-75
2022/02/11 23:09:19;;;;;;;19.77;10.95;;;7.20;77.90;;;;;;5028740;28;20046;-75
2022/02/11 23:11:47;;;;;;;22.02;11.10;;;6.90;78.50;;;;;;5031871;28;20017;-75
2022/02/11 23:14:15;;;;;;;19.95;9.85;;;;;;;;;;5043477;28;20041;-75
2022/02/11 23:16:42;;;;;;;17.95;9.60;;;6.00;78.90;;;;;;5032552;28;20025;-75
2022/02/11 23:19:08;;;;;;;20.45;9.55;;;6.90;81.90;;;;;;5029804;28;20033;-75
2022/02/11 23:21:34;;;;;;;15.77;8.93;;;7.20;82.20;;;;;;5032837;28;20017;-75
2022/02/11 23:24:00;;;;;;;19.10;9.35;;;6.50;83.00;;;;;;5016435;28;20073;-74
2022/02/11 23:26:27;;;;;;;17.58;9.35;;;;;;;;;;5033698;28;20156;-74
2022/02/11 23:28:55;;;;;;;15.90;8.15;;;4.40;83.40;;;;;;5036206;28;20113;-74
2022/02/11 23:31:21;;;;;;;15.27;8.52;;;7.90;84.30;;;;;;5031508;28;20049;-74
2022/02/11 23:33:47;;;;;;;15.63;9.05;;;6.70;78.70;;;;;;5047320;28;20082;-75
2022/02/11 23:36:14;;;;;;;21.38;9.90;;;6.80;79.20;;;;;;5030914;28;20033;-74
2022/02/11 23:38:40;;;;;;;19.35;11.05;;;;;;;;;;5020093;28;20038;-74
2022/02/11 23:41:07;;;;;;;20.00;9.82;;;7.10;85.10;;;;;;5031345;28;20403;-74
2022/02/11 23:43:33;;;;;;;15.88;8.90;;;;;;;;;;5034039;28;20028;-74
2022/02/11 23:46:00;;;;;;;16.33;8.27;;;;;;;;;;5032853;28;20087;-73
2022/02/11 23:48:26;;;;;;;17.58;8.95;;;;;;;;;;5031804;28;20519;-74
2022/02/11 23:50:52;;;;;;;21.85;9.52;;;;;;;;;;5026271;28;20029;-74
2022/02/11 23:53:17;;;;;;;18.33;9.38;;;4.80;98.00;;;;;;5026539;28;20396;-74
2022/02/11 23:55:44;;;;;;;18.50;9.45;;;;;;;;;;5032549;28;20235;-73
2022/02/11 23:58:11;;;;;;;15.82;9.45;;;6.50;99.50;;;;;;5033604;28;20124;-74
